createdAt,value
2023-02-18T00:00:46.164Z,100517.34
2023-02-18T00:02:18.267Z,100520.75
2023-02-18T00:03:50.510Z,100520.81
2023-02-18T00:05:22.821Z,100523.41
2023-02-18T00:06:54.919Z,100518.44
2023-02-18T00:08:26.946Z,100521.84
2023-02-18T00:09:59.131Z,100520.63
2023-02-18T00:11:32.888Z,100528.28
2023-02-18T00:13:04.948Z,100525.59
2023-02-18T00:14:37.003Z,100520.28
2023-02-18T00:16:11.916Z,100522.00
2023-02-18T00:17:44.107Z,100518.47
2023-02-18T00:19:18.455Z,100522.78
2023-02-18T00:20:50.534Z,100520.97
2023-02-18T00:22:22.650Z,100527.03
2023-02-18T00:23:54.945Z,100522.06
2023-02-18T00:25:27.104Z,100522.97
2023-02-18T00:26:59.117Z,100521.34
2023-02-18T00:28:31.313Z,100521.34
2023-02-18T00:30:04.430Z,100514.41
2023-02-18T00:31:37.426Z,100521.09
2023-02-18T00:33:09.885Z,100510.75
2023-02-18T00:34:42.000Z,100507.28
2023-02-18T00:36:16.494Z,100502.25
2023-02-18T00:37:48.647Z,100509.94
2023-02-18T00:39:20.683Z,100515.13
2023-02-18T00:40:52.710Z,100508.34
2023-02-18T00:42:24.746Z,100498.13
2023-02-18T00:43:56.932Z,100504.84
2023-02-18T00:45:30.012Z,100507.47
2023-02-18T00:47:02.099Z,100504.13
2023-02-18T00:48:35.168Z,100503.41
2023-02-18T00:50:08.249Z,100504.22
2023-02-18T00:51:40.321Z,100496.47
2023-02-18T00:53:12.333Z,100495.59
2023-02-18T00:54:44.362Z,100494.69
2023-02-18T00:56:16.417Z,100491.38
2023-02-18T00:57:48.419Z,100487.19
2023-02-18T00:59:20.459Z,100487.28
2023-02-18T01:00:52.626Z,100482.16
2023-02-18T01:02:24.681Z,100487.22
2023-02-18T01:03:56.826Z,100476.09
2023-02-18T01:05:29.218Z,100478.63
2023-02-18T01:07:01.195Z,100488.00
2023-02-18T01:08:34.311Z,100482.09
2023-02-18T01:10:06.922Z,100475.44
2023-02-18T01:11:39.059Z,100482.34
2023-02-18T01:13:12.818Z,100484.19
2023-02-18T01:14:45.031Z,100479.94
2023-02-18T01:16:17.490Z,100474.81
2023-02-18T01:17:49.554Z,100470.50
2023-02-18T01:19:21.511Z,100463.59
2023-02-18T01:20:53.785Z,100455.06
2023-02-18T01:22:26.045Z,100459.16
2023-02-18T01:23:58.645Z,100458.94
2023-02-18T01:25:30.832Z,100459.66
2023-02-18T01:27:02.808Z,100465.69
2023-02-18T01:28:34.936Z,100458.13
2023-02-18T01:30:09.073Z,100457.31
2023-02-18T01:31:41.361Z,100463.31
2023-02-18T01:33:13.525Z,100458.34
2023-02-18T01:34:45.555Z,100456.66
2023-02-18T01:36:18.813Z,100459.16
2023-02-18T01:37:51.508Z,100468.22
2023-02-18T01:39:23.509Z,100462.84
2023-02-18T01:40:55.579Z,100461.19
2023-02-18T01:42:29.858Z,100457.91
2023-02-18T01:44:17.279Z,100448.75
2023-02-18T01:46:09.261Z,100441.28
2023-02-18T01:47:41.534Z,100452.34
2023-02-18T01:49:18.454Z,100451.66
2023-02-18T01:51:19.658Z,100438.00
2023-02-18T01:52:51.701Z,100445.59
2023-02-18T01:54:29.949Z,100438.72
2023-02-18T01:56:06.727Z,100438.53
2023-02-18T01:57:39.371Z,100446.06
2023-02-18T01:59:14.514Z,100440.19
2023-02-18T02:00:46.686Z,100434.16
2023-02-18T02:02:22.635Z,100428.47
2023-02-18T02:03:54.972Z,100436.94
2023-02-18T02:05:31.724Z,100433.69
2023-02-18T02:07:03.991Z,100432.00
2023-02-18T02:08:36.065Z,100432.72
2023-02-18T02:10:08.837Z,100427.69
2023-02-18T02:11:58.974Z,100423.63
2023-02-18T02:14:04.974Z,100421.91
2023-02-18T02:15:51.825Z,100433.81
2023-02-18T02:17:41.672Z,100429.50
2023-02-18T02:19:16.771Z,100428.53
2023-02-18T02:21:07.478Z,100433.66
2023-02-18T02:23:27.950Z,100434.63
2023-02-18T02:25:23.008Z,100417.72
2023-02-18T02:27:09.941Z,100430.53
2023-02-18T02:28:53.968Z,100429.69
2023-02-18T02:30:42.522Z,100425.59
2023-02-18T02:32:51.285Z,100420.50
2023-02-18T02:34:43.642Z,100424.69
2023-02-18T02:36:26.429Z,100414.56
2023-02-18T02:38:10.155Z,100419.66
2023-02-18T02:39:56.884Z,100418.03
2023-02-18T02:41:39.710Z,100429.09
2023-02-18T02:43:58.266Z,100431.63
2023-02-18T02:45:37.347Z,100426.41
2023-02-18T02:47:13.393Z,100424.69
2023-02-18T02:49:08.604Z,100429.09
2023-02-18T02:50:52.947Z,100430.91
2023-02-18T02:52:31.460Z,100427.53
2023-02-18T02:54:19.307Z,100419.91
2023-02-18T02:55:51.364Z,100423.97
2023-02-18T02:57:23.351Z,100429.81
2023-02-18T02:59:00.195Z,100428.00
2023-02-18T03:00:48.587Z,100425.44
2023-02-18T03:02:29.248Z,100431.44
2023-02-18T03:04:25.962Z,100426.34
2023-02-18T03:06:16.882Z,100435.66
2023-02-18T03:08:23.708Z,100430.53
2023-02-18T03:10:22.898Z,100428.00
2023-02-18T03:12:09.159Z,100428.06
2023-02-18T03:13:53.022Z,100421.34
2023-02-18T03:15:36.478Z,100422.31
2023-02-18T03:17:16.255Z,100422.94
2023-02-18T03:19:20.510Z,100427.31
2023-02-18T03:21:06.180Z,100430.03
2023-02-18T03:22:44.494Z,100430.13
2023-02-18T03:24:28.980Z,100429.38
2023-02-18T03:26:04.874Z,100428.59
2023-02-18T03:28:04.423Z,100433.84
2023-02-18T03:29:36.639Z,100426.94
2023-02-18T03:31:18.660Z,100434.66
2023-02-18T03:32:56.741Z,100438.84
2023-02-18T03:34:33.550Z,100431.19
2023-02-18T03:36:06.259Z,100427.78
2023-02-18T03:37:42.773Z,100423.81
2023-02-18T03:39:16.733Z,100420.53
2023-02-18T03:40:48.929Z,100422.06
2023-02-18T03:42:20.979Z,100408.47
2023-02-18T03:44:00.947Z,100410.31
2023-02-18T03:45:33.040Z,100410.94
2023-02-18T03:47:05.141Z,100406.69
2023-02-18T03:48:37.455Z,100405.84
2023-02-18T03:50:09.730Z,100403.31
2023-02-18T03:51:42.289Z,100399.94
2023-02-18T03:53:14.263Z,100399.09
2023-02-18T03:54:46.340Z,100401.81
2023-02-18T03:56:18.579Z,100392.56
2023-02-18T03:57:50.668Z,100401.13
2023-02-18T03:59:22.683Z,100397.69
2023-02-18T04:00:54.909Z,100396.03
2023-02-18T04:02:27.182Z,100402.91
2023-02-18T04:05:33.994Z,100400.47
2023-02-18T04:07:06.011Z,100397.06
2023-02-18T04:08:38.004Z,100398.81
2023-02-18T04:10:10.504Z,100381.88
2023-02-18T04:11:42.558Z,100383.63
2023-02-18T04:13:14.609Z,100382.84
2023-02-18T04:14:46.657Z,100395.56
2023-02-18T04:16:18.744Z,100388.69
2023-02-18T04:17:50.806Z,100392.16
2023-02-18T04:19:22.841Z,100387.03
2023-02-18T04:20:54.813Z,100385.31
2023-02-18T04:22:26.841Z,100391.31
2023-02-18T04:23:59.007Z,100399.06
2023-02-18T04:25:31.336Z,100394.13
2023-02-18T04:27:03.362Z,100406.09
2023-02-18T04:28:35.631Z,100407.00
2023-02-18T04:30:08.382Z,100402.81
2023-02-18T04:31:40.470Z,100399.56
2023-02-18T04:33:12.580Z,100395.50
2023-02-18T04:34:44.703Z,100379.44
2023-02-18T04:36:16.701Z,100383.84
2023-02-18T04:37:48.807Z,100380.63
2023-02-18T04:40:52.691Z,100391.75
2023-02-18T04:42:24.804Z,100384.13
2023-02-18T04:43:56.905Z,100392.75
2023-02-18T04:45:29.301Z,100380.06
2023-02-18T04:47:01.312Z,100386.13
2023-02-18T04:48:35.406Z,100388.69
2023-02-18T04:50:08.171Z,100385.38
2023-02-18T04:51:40.287Z,100384.56
2023-02-18T04:53:12.345Z,100384.63
2023-02-18T04:54:44.458Z,100380.47
2023-02-18T04:56:16.556Z,100382.16
2023-02-18T04:57:48.615Z,100384.63
2023-02-18T04:59:20.745Z,100385.53
2023-02-18T05:00:54.259Z,100376.16
2023-02-18T05:02:26.414Z,100377.91
2023-02-18T05:03:58.596Z,100377.19
2023-02-18T05:05:30.673Z,100383.28
2023-02-18T05:07:03.014Z,100381.69
2023-02-18T05:08:35.201Z,100376.69
2023-02-18T05:10:07.932Z,100379.34
2023-02-18T05:11:40.300Z,100377.72
2023-02-18T05:13:12.345Z,100376.06
2023-02-18T05:14:44.463Z,100372.72
2023-02-18T05:16:16.607Z,100372.75
2023-02-18T05:17:48.643Z,100372.84
2023-02-18T05:19:20.827Z,100372.03
2023-02-18T05:20:52.857Z,100360.19
2023-02-18T05:22:24.903Z,100357.63
2023-02-18T05:23:57.098Z,100361.94
2023-02-18T05:25:29.047Z,100357.75
2023-02-18T05:27:01.191Z,100356.97
2023-02-18T05:28:33.723Z,100355.34
2023-02-18T05:30:06.581Z,100345.19
2023-02-18T05:31:38.915Z,100348.69
2023-02-18T05:33:11.128Z,100351.38
2023-02-18T05:34:43.123Z,100354.81
2023-02-18T05:36:15.355Z,100344.63
2023-02-18T05:39:17.617Z,100347.19
2023-02-18T05:40:49.763Z,100348.97
2023-02-18T05:42:21.840Z,100349.00
2023-02-18T05:44:12.341Z,100344.84
2023-02-18T05:45:44.385Z,100351.75
2023-02-18T05:47:16.661Z,100356.88
2023-02-18T05:48:49.005Z,100350.09
2023-02-18T05:50:24.527Z,100353.63
2023-02-18T05:51:56.779Z,100348.53
2023-02-18T05:53:28.782Z,100342.69
2023-02-18T05:55:00.803Z,100347.06
2023-02-18T05:56:32.865Z,100342.81
2023-02-18T05:58:05.942Z,100345.50
2023-02-18T05:59:38.082Z,100348.16
2023-02-18T06:01:10.168Z,100346.44
2023-02-18T06:02:42.286Z,100349.91
2023-02-18T06:04:15.438Z,100348.25
2023-02-18T06:05:50.633Z,100360.31
2023-02-18T06:07:35.205Z,100332.03
2023-02-18T06:09:07.843Z,100356.09
2023-02-18T06:10:41.075Z,100353.56
2023-02-18T06:12:13.306Z,100355.31
2023-02-18T06:13:45.370Z,100359.63
2023-02-18T06:15:17.655Z,100361.41
2023-02-18T06:16:49.826Z,100358.91
2023-02-18T06:18:22.378Z,100358.16
2023-02-18T06:19:54.415Z,100364.09
2023-02-18T06:21:26.614Z,100364.13
2023-02-18T06:22:58.899Z,100358.19
2023-02-18T06:24:31.027Z,100351.38
2023-02-18T06:26:03.093Z,100354.00
2023-02-18T06:27:35.225Z,100352.44
2023-02-18T06:29:07.218Z,100349.06
2023-02-18T06:30:42.367Z,100349.16
2023-02-18T06:32:14.618Z,100350.06
2023-02-18T06:33:46.756Z,100344.97
2023-02-18T06:35:18.805Z,100349.31
2023-02-18T06:36:50.861Z,100346.78
2023-02-18T06:38:23.024Z,100341.75
2023-02-18T06:39:55.285Z,100340.09
2023-02-18T06:41:27.504Z,100340.16
2023-02-18T06:42:59.800Z,100341.03
2023-02-18T06:44:31.780Z,100338.53
2023-02-18T06:46:05.032Z,100337.78
2023-02-18T06:47:37.050Z,100335.31
2023-02-18T06:49:09.161Z,100337.09
2023-02-18T06:50:43.071Z,100332.94
2023-02-18T06:52:15.326Z,100339.84
2023-02-18T06:53:47.347Z,100332.22
2023-02-18T06:55:19.538Z,100328.88
2023-02-18T06:56:51.684Z,100322.06
2023-02-18T06:58:23.724Z,100317.88
2023-02-18T06:59:55.748Z,100320.53
2023-02-18T07:01:28.072Z,100320.66
2023-02-18T07:03:00.081Z,100323.34
2023-02-18T07:04:32.062Z,100321.72
2023-02-18T07:06:04.399Z,100320.09
2023-02-18T07:07:36.549Z,100318.53
2023-02-18T07:09:08.620Z,100326.31
2023-02-18T07:10:40.706Z,100323.03
2023-02-18T07:13:52.348Z,100305.97
2023-02-18T07:15:24.738Z,100315.47
2023-02-18T07:16:56.740Z,100320.66
2023-02-18T07:18:28.887Z,100316.38
2023-02-18T07:20:01.343Z,100315.56
2023-02-18T07:21:33.544Z,100323.34
2023-02-18T07:23:05.557Z,100317.31
2023-02-18T07:24:37.575Z,100320.78
2023-02-18T07:26:12.282Z,100312.19
2023-02-18T07:27:44.708Z,100323.34
2023-02-18T07:29:16.850Z,100327.66
2023-02-18T07:30:48.822Z,100322.47
2023-02-18T07:32:21.100Z,100322.50
2023-02-18T07:33:53.061Z,100331.06
2023-02-18T07:35:25.312Z,100329.34
2023-02-18T07:36:57.380Z,100321.59
2023-02-18T07:38:29.816Z,100321.56
2023-02-18T07:40:01.830Z,100324.09
2023-02-18T07:41:33.934Z,100325.75
2023-02-18T07:43:05.943Z,100325.75
2023-02-18T07:44:38.675Z,100323.94
2023-02-18T07:46:11.020Z,100321.28
2023-02-18T07:47:43.546Z,100325.50
2023-02-18T07:49:18.648Z,100330.59
2023-02-18T07:50:50.598Z,100322.75
2023-02-18T07:52:22.678Z,100324.41
2023-02-18T07:53:54.759Z,100337.22
2023-02-18T07:55:46.867Z,100326.72
2023-02-18T07:57:18.918Z,100332.63
2023-02-18T07:58:50.912Z,100338.50
2023-02-18T08:00:23.420Z,100334.94
2023-02-18T08:01:55.516Z,100330.44
2023-02-18T08:03:30.531Z,100343.25
2023-02-18T08:05:02.558Z,100331.81
2023-02-18T08:06:37.837Z,100331.53
2023-02-18T08:08:16.911Z,100333.91
2023-02-18T08:09:51.018Z,100343.81
2023-02-18T08:11:23.316Z,100334.44
2023-02-18T08:12:55.353Z,100332.88
2023-02-18T08:14:27.339Z,100332.47
2023-02-18T08:17:34.388Z,100332.78
2023-02-18T08:19:06.527Z,100328.03
2023-02-18T08:20:38.860Z,100327.69
2023-02-18T08:22:10.912Z,100330.78
2023-02-18T08:23:43.081Z,100334.06
2023-02-18T08:25:28.566Z,100331.13
2023-02-18T08:27:01.873Z,100332.31
2023-02-18T08:28:34.145Z,100334.75
2023-02-18T08:30:06.905Z,100332.97
2023-02-18T08:31:39.294Z,100331.97
2023-02-18T08:33:11.466Z,100338.72
2023-02-18T08:34:43.695Z,100336.81
2023-02-18T08:36:15.899Z,100341.81
2023-02-18T08:37:52.516Z,100335.66
2023-02-18T08:39:26.078Z,100337.31
2023-02-18T08:41:05.961Z,100332.78
2023-02-18T08:42:38.137Z,100327.66
2023-02-18T08:44:10.233Z,100326.59
2023-02-18T08:45:43.560Z,100322.16
2023-02-18T08:48:17.944Z,100322.84
2023-02-18T08:49:07.540Z,100316.97
2023-02-18T08:50:39.785Z,100316.16
2023-02-18T08:52:11.982Z,100315.28
2023-02-18T08:53:45.450Z,100315.28
2023-02-18T08:55:21.047Z,100310.78
2023-02-18T08:56:58.037Z,100312.59
2023-02-18T08:58:30.104Z,100319.59
2023-02-18T09:00:02.339Z,100319.53
2023-02-18T09:01:34.731Z,100323.81
2023-02-18T09:03:07.268Z,100332.53
2023-02-18T09:04:39.328Z,100342.00
2023-02-18T09:06:11.414Z,100349.72
2023-02-18T09:07:43.710Z,100349.56
2023-02-18T09:09:16.850Z,100354.53
2023-02-18T09:10:48.991Z,100343.75
2023-02-18T09:12:21.055Z,100335.84
2023-02-18T09:13:53.252Z,100345.25
2023-02-18T09:15:25.410Z,100352.13
2023-02-18T09:16:58.908Z,100351.06
2023-02-18T09:18:31.206Z,100364.88
2023-02-18T09:20:04.498Z,100370.13
2023-02-18T09:21:36.884Z,100369.22
2023-02-18T09:23:09.106Z,100363.72
2023-02-18T09:24:42.188Z,100366.91
2023-02-18T09:26:16.008Z,100354.66
2023-02-18T09:27:48.166Z,100351.94
2023-02-18T09:29:20.739Z,100355.28
2023-02-18T09:30:53.418Z,100351.53
2023-02-18T09:32:34.207Z,100343.66
2023-02-18T09:34:07.646Z,100352.22
2023-02-18T09:35:41.363Z,100349.47
2023-02-18T09:37:14.930Z,100351.88
2023-02-18T09:38:47.627Z,100357.00
2023-02-18T09:40:29.950Z,100359.25
2023-02-18T09:42:04.021Z,100359.22
2023-02-18T09:43:44.047Z,100361.00
2023-02-18T09:45:16.854Z,100361.81
2023-02-18T09:47:01.412Z,100361.50
2023-02-18T09:48:35.827Z,100370.34
2023-02-18T09:50:22.713Z,100368.50
2023-02-18T09:51:56.542Z,100365.09
2023-02-18T09:53:28.821Z,100370.34
2023-02-18T09:55:00.911Z,100360.88
2023-02-18T09:56:36.241Z,100363.28
2023-02-18T09:58:14.864Z,100365.03
2023-02-18T09:59:48.508Z,100368.53
2023-02-18T10:01:36.778Z,100366.56
2023-02-18T10:03:13.568Z,100366.41
2023-02-18T10:04:52.482Z,100357.56
2023-02-18T10:06:31.395Z,100353.88
2023-02-18T10:08:07.693Z,100359.94
2023-02-18T10:09:42.113Z,100355.44
2023-02-18T10:11:22.888Z,100368.31
2023-02-18T10:12:56.107Z,100366.34
2023-02-18T10:16:06.948Z,100363.56
2023-02-18T10:17:39.306Z,100368.75
2023-02-18T10:19:30.818Z,100357.22
2023-02-18T10:21:08.664Z,100358.09
2023-02-18T10:22:40.928Z,100355.41
2023-02-18T10:24:22.900Z,100352.44
2023-02-18T10:25:56.104Z,100348.09
2023-02-18T10:27:30.969Z,100351.38
2023-02-18T10:29:03.283Z,100334.13
2023-02-18T10:30:40.931Z,100333.75
2023-02-18T10:32:25.991Z,100326.75
2023-02-18T10:34:25.315Z,100330.19
2023-02-18T10:36:11.975Z,100323.56
2023-02-18T10:37:52.854Z,100319.81
2023-02-18T10:39:57.152Z,100330.91
2023-02-18T10:41:40.797Z,100314.34
2023-02-18T10:43:18.787Z,100319.81
2023-02-18T10:45:18.935Z,100320.38
2023-02-18T10:47:08.146Z,100316.03
2023-02-18T10:48:53.101Z,100314.34
2023-02-18T10:50:28.185Z,100304.97
2023-02-18T10:52:03.280Z,100307.22
2023-02-18T10:53:38.436Z,100303.88
2023-02-18T10:55:13.137Z,100308.19
2023-02-18T10:56:50.838Z,100299.50
2023-02-18T10:58:33.624Z,100297.53
2023-02-18T11:00:24.356Z,100287.38
2023-02-18T11:01:59.338Z,100290.44
2023-02-18T11:03:44.267Z,100292.16
2023-02-18T11:05:24.236Z,100281.97
2023-02-18T11:06:56.391Z,100280.22
2023-02-18T11:08:29.761Z,100282.03
2023-02-18T11:10:03.405Z,100258.25
2023-02-18T11:11:38.737Z,100258.06
2023-02-18T11:14:46.930Z,100258.84
2023-02-18T11:16:23.251Z,100264.03
2023-02-18T11:18:12.686Z,100255.03
2023-02-18T11:19:53.069Z,100258.59
2023-02-18T11:21:30.563Z,100246.25
2023-02-18T11:23:08.743Z,100251.56
2023-02-18T11:24:40.929Z,100245.66
2023-02-18T11:26:15.825Z,100252.25
2023-02-18T11:27:58.606Z,100247.72
2023-02-18T11:29:31.968Z,100246.06
2023-02-18T11:31:05.510Z,100238.03
2023-02-18T11:32:37.739Z,100230.38
2023-02-18T11:34:22.106Z,100233.78
2023-02-18T11:35:59.139Z,100227.47
2023-02-18T11:37:33.823Z,100232.66
2023-02-18T11:39:18.173Z,100244.72
2023-02-18T11:40:58.543Z,100218.53
2023-02-18T11:42:30.798Z,100224.66
2023-02-18T11:44:05.154Z,100227.09
2023-02-18T11:45:37.357Z,100225.47
2023-02-18T11:47:15.490Z,100236.47
2023-02-18T11:48:48.336Z,100236.47
2023-02-18T11:50:23.685Z,100225.94
2023-02-18T11:51:56.205Z,100230.34
2023-02-18T11:53:32.306Z,100223.28
2023-02-18T11:55:07.737Z,100228.56
2023-02-18T11:56:41.242Z,100230.16
2023-02-18T11:58:14.789Z,100223.78
2023-02-18T11:59:46.936Z,100224.56
2023-02-18T12:01:43.081Z,100221.78
2023-02-18T12:03:42.471Z,100209.47
2023-02-18T12:05:27.084Z,100211.94
2023-02-18T12:07:38.200Z,100208.28
2023-02-18T12:09:19.435Z,100212.53
2023-02-18T12:11:02.848Z,100205.59
2023-02-18T12:12:47.462Z,100203.81
2023-02-18T12:14:21.834Z,100206.59
2023-02-18T12:16:28.858Z,100205.72
2023-02-18T12:18:15.325Z,100206.75
2023-02-18T12:20:22.568Z,100208.44
2023-02-18T12:22:04.478Z,100203.28
2023-02-18T12:23:57.476Z,100207.81
2023-02-18T12:25:57.507Z,100201.88
2023-02-18T12:27:54.326Z,100206.19
2023-02-18T12:29:47.603Z,100209.78
2023-02-18T12:31:44.467Z,100206.38
2023-02-18T12:33:39.566Z,100206.53
2023-02-18T12:35:30.246Z,100193.44
2023-02-18T12:37:17.417Z,100199.72
2023-02-18T12:38:59.571Z,100200.75
2023-02-18T12:40:38.341Z,100195.69
2023-02-18T12:44:19.429Z,100198.13
2023-02-18T12:46:10.298Z,100204.41
2023-02-18T12:48:20.078Z,100203.41
2023-02-18T12:49:57.664Z,100202.75
2023-02-18T12:51:49.471Z,100207.13
2023-02-18T12:53:30.790Z,100194.88
2023-02-18T12:55:40.186Z,100199.34
2023-02-18T12:57:40.739Z,100196.13
2023-02-18T12:59:54.567Z,100191.19
2023-02-18T13:01:32.468Z,100188.81
2023-02-18T13:03:50.541Z,100176.53
2023-02-18T13:05:33.764Z,100185.41
2023-02-18T13:07:40.424Z,100179.56
2023-02-18T13:09:49.489Z,100191.06
2023-02-18T13:11:28.406Z,100181.63
2023-02-18T13:13:13.682Z,100179.94
2023-02-18T13:15:05.933Z,100180.00
2023-02-18T13:16:39.317Z,100176.81
2023-02-18T13:18:16.864Z,100183.81
2023-02-18T13:19:55.555Z,100182.19
2023-02-18T13:21:28.093Z,100177.00
2023-02-18T13:23:00.229Z,100181.41
2023-02-18T13:24:37.665Z,100181.81
2023-02-18T13:26:12.619Z,100190.50
2023-02-18T13:27:54.116Z,100187.19
2023-02-18T13:29:31.766Z,100188.06
2023-02-18T13:31:33.018Z,100185.59
2023-02-18T13:33:17.966Z,100185.88
2023-02-18T13:35:16.790Z,100181.69
2023-02-18T13:37:17.696Z,100180.94
2023-02-18T13:38:52.289Z,100186.38
2023-02-18T13:40:29.444Z,100182.84
2023-02-18T13:42:30.979Z,100182.06
2023-02-18T13:44:30.451Z,100185.69
2023-02-18T13:46:08.378Z,100181.59
2023-02-18T13:47:42.023Z,100176.50
2023-02-18T13:49:14.471Z,100185.25
2023-02-18T13:50:46.515Z,100189.66
2023-02-18T13:52:20.434Z,100187.00
2023-02-18T13:53:53.065Z,100182.84
2023-02-18T13:56:04.861Z,100179.16
2023-02-18T13:57:37.734Z,100178.56
2023-02-18T13:59:29.018Z,100176.13
2023-02-18T14:01:15.297Z,100187.25
2023-02-18T14:03:01.932Z,100175.94
2023-02-18T14:04:43.883Z,100183.03
2023-02-18T14:06:31.305Z,100171.72
2023-02-18T14:08:29.971Z,100180.59
2023-02-18T14:10:05.214Z,100183.31
2023-02-18T14:12:01.945Z,100179.91
2023-02-18T14:13:56.632Z,100173.88
2023-02-18T14:15:28.714Z,100175.88
2023-02-18T14:17:35.860Z,100175.13
2023-02-18T14:19:28.587Z,100163.88
2023-02-18T14:22:46.291Z,100168.91
2023-02-18T14:24:44.846Z,100167.75
2023-02-18T14:26:16.992Z,100167.00
2023-02-18T14:27:53.620Z,100167.84
2023-02-18T14:59:06.201Z,100127.88
2023-02-18T15:00:42.233Z,100124.41
2023-02-18T15:02:27.805Z,100126.28
2023-02-18T15:04:02.019Z,100125.41
2023-02-18T15:05:38.822Z,100138.47
2023-02-18T15:07:12.743Z,100132.63
2023-02-18T15:08:44.809Z,100134.47
2023-02-18T15:10:17.129Z,100138.00
2023-02-18T15:12:08.559Z,100141.28
2023-02-18T15:13:44.961Z,100141.38
2023-02-18T15:15:23.904Z,100143.19
2023-02-18T15:16:56.141Z,100143.28
2023-02-18T15:18:41.556Z,100143.41
2023-02-18T15:20:14.701Z,100140.91
2023-02-18T15:21:51.707Z,100139.25
2023-02-18T15:23:23.897Z,100134.22
2023-02-18T15:24:57.334Z,100143.84
2023-02-18T15:26:29.243Z,100143.00
2023-02-18T15:28:01.542Z,100139.03
2023-02-18T15:29:36.933Z,100146.19
2023-02-18T15:31:13.951Z,100152.44
2023-02-18T15:32:55.704Z,100156.13
2023-02-18T15:34:33.846Z,100162.41
2023-02-18T15:36:07.383Z,100154.91
2023-02-18T15:37:39.545Z,100150.81
2023-02-18T15:39:11.556Z,100150.19
2023-02-18T15:40:50.706Z,100138.19
2023-02-18T15:42:37.198Z,100141.03
2023-02-18T15:44:09.380Z,100140.47
2023-02-18T15:45:45.910Z,100143.25
2023-02-18T15:47:19.117Z,100135.63
2023-02-18T15:48:53.942Z,100139.28
2023-02-18T15:50:32.736Z,100143.78
2023-02-18T15:52:05.413Z,100137.13
2023-02-18T15:53:40.572Z,100137.25
2023-02-18T15:55:25.994Z,100134.09
2023-02-18T15:57:02.182Z,100135.22
2023-02-18T15:58:35.072Z,100137.25
2023-02-18T16:01:39.107Z,100140.41
2023-02-18T16:03:26.514Z,100142.38
2023-02-18T16:05:01.257Z,100143.53
2023-02-18T16:06:39.484Z,100154.22
2023-02-18T16:08:16.995Z,100151.00
2023-02-18T16:09:49.213Z,100150.38
2023-02-18T16:11:24.513Z,100153.13
2023-02-18T16:13:00.713Z,100155.97
2023-02-18T16:14:46.095Z,100159.59
2023-02-18T16:16:25.133Z,100159.84
2023-02-18T16:17:59.264Z,100158.38
2023-02-18T16:19:32.467Z,100163.66
2023-02-18T16:21:09.954Z,100158.72
2023-02-18T16:22:53.260Z,100162.41
2023-02-18T16:24:33.426Z,100167.88
2023-02-18T16:26:20.471Z,100175.06
2023-02-18T16:28:07.400Z,100168.41
2023-02-18T16:29:42.884Z,100175.56
2023-02-18T16:31:16.910Z,100166.34
2023-02-18T16:32:49.364Z,100172.50
2023-02-18T16:34:21.501Z,100170.97
2023-02-18T16:35:53.948Z,100171.97
2023-02-18T16:37:40.815Z,100182.44
2023-02-18T16:39:12.986Z,100182.63
2023-02-18T16:40:45.691Z,100173.22
2023-02-18T16:42:17.775Z,100174.28
2023-02-18T16:43:50.720Z,100175.25
2023-02-18T16:45:31.674Z,100179.69
2023-02-18T16:47:04.225Z,100173.81
2023-02-18T16:48:41.020Z,100166.16
2023-02-18T16:50:21.626Z,100173.19
2023-02-18T16:51:53.653Z,100171.63
2023-02-18T16:53:25.766Z,100176.00
2023-02-18T16:54:58.487Z,100175.25
2023-02-18T16:56:33.644Z,100175.28
2023-02-18T16:58:05.841Z,100170.25
2023-02-18T17:01:45.154Z,100180.78
2023-02-18T17:03:17.301Z,100174.97
2023-02-18T17:04:49.406Z,100176.91
2023-02-18T17:06:22.253Z,100171.94
2023-02-18T17:07:55.515Z,100175.69
2023-02-18T17:09:30.699Z,100176.78
2023-02-18T17:11:02.697Z,100181.19
2023-02-18T17:12:34.750Z,100181.28
2023-02-18T17:14:06.716Z,100171.84
2023-02-18T17:15:38.934Z,100181.34
2023-02-18T17:17:12.880Z,100170.09
2023-02-18T17:18:45.807Z,100172.72
2023-02-18T17:20:18.434Z,100172.78
2023-02-18T17:21:50.509Z,100184.03
2023-02-18T17:23:24.420Z,100189.28
2023-02-18T17:24:56.521Z,100178.16
2023-02-18T17:26:30.230Z,100178.16
2023-02-18T17:28:02.817Z,100175.66
2023-02-18T17:29:34.874Z,100174.78
2023-02-18T17:31:07.189Z,100172.22
2023-02-18T17:32:39.259Z,100161.91
2023-02-18T17:35:52.088Z,100161.09
2023-02-18T17:37:24.202Z,100164.59
2023-02-18T17:38:56.992Z,100168.06
2023-02-18T17:40:29.654Z,100156.06
2023-02-18T17:42:01.797Z,100156.94
2023-02-18T17:43:34.419Z,100150.03
2023-02-18T17:45:29.166Z,100150.94
2023-02-18T17:47:01.247Z,100142.34
2023-02-18T17:48:33.485Z,100146.66
2023-02-18T17:50:06.130Z,100146.72
2023-02-18T17:51:39.567Z,100139.88
2023-02-18T17:53:14.820Z,100139.03
2023-02-18T17:54:46.884Z,100145.22
2023-02-18T17:56:18.953Z,100134.16
2023-02-18T17:57:52.228Z,100137.69
2023-02-18T17:59:24.274Z,100136.03
2023-02-18T18:00:57.882Z,100139.53
2023-02-18T18:02:30.098Z,100146.47
2023-02-18T18:04:02.267Z,100149.06
2023-02-18T18:05:36.779Z,100147.38
2023-02-18T18:07:08.890Z,100152.63
2023-02-18T18:08:45.843Z,100153.50
2023-02-18T18:10:23.076Z,100153.53
2023-02-18T18:11:55.114Z,100157.88
2023-02-18T18:13:29.572Z,100152.69
2023-02-18T18:15:13.811Z,100152.69
2023-02-18T18:16:45.858Z,100155.25
2023-02-18T18:18:21.381Z,100156.97
2023-02-18T18:19:53.473Z,100156.09
2023-02-18T18:21:32.114Z,100154.38
2023-02-18T18:23:06.791Z,100146.63
2023-02-18T18:24:38.842Z,100148.38
2023-02-18T18:26:10.962Z,100152.69
2023-02-18T18:27:42.986Z,100146.66
2023-02-18T18:29:15.172Z,100144.09
2023-02-18T18:30:49.002Z,100144.97
2023-02-18T18:32:22.962Z,100139.84
2023-02-18T18:33:54.999Z,100139.03
2023-02-18T18:35:36.324Z,100135.63
2023-02-18T18:37:08.734Z,100136.59
2023-02-18T18:40:12.464Z,100133.25
2023-02-18T18:41:47.645Z,100131.53
2023-02-18T18:43:21.333Z,100134.97
2023-02-18T18:44:53.308Z,100139.31
2023-02-18T18:46:25.626Z,100131.56
2023-02-18T18:47:57.830Z,100135.91
2023-02-18T18:49:29.842Z,100138.47
2023-02-18T18:51:02.867Z,100147.09
2023-02-18T18:52:35.056Z,100137.63
2023-02-18T18:54:07.168Z,100144.53
2023-02-18T18:55:40.983Z,100131.66
2023-02-18T18:57:13.037Z,100125.66
2023-02-18T18:58:45.010Z,100139.38
2023-02-18T19:00:19.262Z,100132.50
2023-02-18T19:01:52.329Z,100134.22
2023-02-18T19:03:25.979Z,100125.63
2023-02-18T19:04:58.115Z,100139.38
2023-02-18T19:06:30.131Z,100136.81
2023-02-18T19:08:03.297Z,100113.59
2023-02-18T19:11:15.366Z,100128.25
2023-02-18T19:12:48.151Z,100132.56
2023-02-18T19:14:20.168Z,100123.09
2023-02-18T19:16:19.968Z,100125.69
2023-02-18T19:17:53.794Z,100123.16
2023-02-18T19:19:25.931Z,100117.13